Farrar, Iowa
Current Conditions -  °F | °C
As of 8:35 PM on Saturday 20 Dec 2014 (Local Time) from KIKV Reporting Station
Haze Haze  
Wind Chill: -1°   Ceiling: 1300
Heat Index:   Visibility: 5mi
Dew Point:   Wind: 7mph
Humidity: 93%   Direction: 160°SSE
Pressure: 30.12"   Gusts: NA
Location:  41.8542°N, 93.4051°W
Report Text: KIKV 210235Z AUTO 16006KT 5SM BR OVC013 02/01 A3012 RMK AO2
Loading
Personal Weather Stations






























Interactive Weather Map New forecast layout! Learn more

10-Day Weather Forecast

Advertisements
Track Severe Weather on mobile